createdAt,value
2019-02-07T00:02:38.980Z,21.53
2019-02-07T00:07:41.712Z,21.10
2019-02-07T00:12:44.399Z,23.07
2019-02-07T00:17:47.615Z,23.03
2019-02-07T00:22:50.306Z,21.30
2019-02-07T00:27:53.010Z,23.30
2019-02-07T00:32:55.708Z,22.40
2019-02-07T00:37:58.407Z,27.47
2019-02-07T00:43:01.410Z,26.50
2019-02-07T00:48:04.518Z,20.70
2019-02-07T00:53:07.239Z,20.63
2019-02-07T00:58:09.938Z,21.87
2019-02-07T01:03:12.664Z,23.03
2019-02-07T01:08:15.887Z,21.90
2019-02-07T01:13:18.583Z,24.40
2019-02-07T01:18:21.614Z,17.83
2019-02-07T01:23:24.323Z,21.20
2019-02-07T01:28:27.009Z,19.17
2019-02-07T01:33:29.815Z,23.13
2019-02-07T01:38:32.511Z,22.70
2019-02-07T01:43:35.203Z,20.87
2019-02-07T01:48:37.899Z,22.57
2019-02-07T01:53:40.592Z,23.00
2019-02-07T01:58:43.338Z,22.93
2019-02-07T02:03:46.031Z,20.00
2019-02-07T02:08:48.748Z,18.80
2019-02-07T02:13:51.572Z,17.83
2019-02-07T02:18:54.484Z,19.37
2019-02-07T02:23:57.200Z,21.43
2019-02-07T02:29:04.797Z,21.00
2019-02-07T02:34:07.679Z,19.50
2019-02-07T02:39:10.379Z,19.83
2019-02-07T02:44:13.059Z,20.70
2019-02-07T02:49:15.776Z,19.33
2019-02-07T02:54:32.939Z,20.33
2019-02-07T02:59:35.660Z,18.43
2019-02-07T03:04:56.331Z,20.47
2019-02-07T03:10:24.286Z,21.30
2019-02-07T03:15:50.172Z,20.90
2019-02-07T03:21:11.033Z,16.70
2019-02-07T03:26:36.420Z,21.53
2019-02-07T03:31:57.124Z,22.80
2019-02-07T03:37:11.761Z,27.03
2019-02-07T03:42:43.161Z,18.00
2019-02-07T03:48:17.284Z,21.67
2019-02-07T03:53:39.631Z,22.17
2019-02-07T03:58:51.674Z,20.83
2019-02-07T04:04:09.075Z,20.80
2019-02-07T04:09:29.659Z,24.67
2019-02-07T04:14:50.203Z,19.67
2019-02-07T04:20:13.758Z,22.40
2019-02-07T04:25:34.660Z,22.40
2019-02-07T04:30:50.471Z,24.60
2019-02-07T04:36:07.685Z,20.53
2019-02-07T04:41:41.222Z,20.10
2019-02-07T04:59:50.523Z,23.30
2019-02-07T05:05:50.856Z,21.33
2019-02-07T05:11:16.519Z,23.70
2019-02-07T05:16:51.414Z,22.80
2019-02-07T05:22:10.376Z,22.27
2019-02-07T05:27:31.049Z,22.53
2019-02-07T05:32:45.071Z,24.80
2019-02-07T05:37:56.459Z,25.87
2019-02-07T05:43:19.064Z,22.07
2019-02-07T05:48:47.408Z,26.57
2019-02-07T05:54:12.903Z,21.23
2019-02-07T05:59:45.221Z,25.47
2019-02-07T06:05:13.415Z,24.92
2019-02-07T06:10:50.506Z,21.80
2019-02-07T06:16:11.212Z,24.07
2019-02-07T06:21:26.190Z,19.23
2019-02-07T06:26:48.592Z,23.43
2019-02-07T06:31:58.776Z,21.27
2019-02-07T06:37:19.566Z,19.10
2019-02-07T06:42:29.779Z,19.40
2019-02-07T06:47:44.867Z,25.37
2019-02-07T06:53:06.163Z,23.97
2019-02-07T06:58:34.075Z,22.97
2019-02-07T07:04:03.063Z,22.17
2019-02-07T07:09:26.934Z,20.07
2019-02-07T07:15:00.884Z,24.17
2019-02-07T07:20:30.689Z,23.43
2019-02-07T07:25:48.090Z,23.33
2019-02-07T07:31:08.606Z,32.80
2019-02-07T07:36:22.427Z,21.67
2019-02-07T07:41:43.237Z,28.40
2019-02-07T07:47:03.720Z,24.23
2019-02-07T07:52:24.209Z,23.43
2019-02-07T07:57:39.860Z,24.03
2019-02-07T08:03:17.256Z,23.17
2019-02-07T08:08:38.012Z,24.50
2019-02-07T08:13:58.579Z,20.77
2019-02-07T08:19:19.072Z,21.93
2019-02-07T08:24:50.038Z,24.80
2019-02-07T08:30:10.513Z,22.50
2019-02-07T08:35:32.021Z,29.43
2019-02-07T08:41:06.205Z,25.13
2019-02-07T08:46:37.408Z,26.80
2019-02-07T08:52:09.526Z,27.17
2019-02-07T08:57:31.846Z,27.00
2019-02-07T09:02:51.878Z,24.20
2019-02-07T09:08:16.133Z,24.00
2019-02-07T09:13:43.213Z,23.97
2019-02-07T09:19:11.425Z,23.10
2019-02-07T09:24:32.698Z,21.17
2019-02-07T09:30:12.967Z,22.63
2019-02-07T09:35:32.956Z,24.63
2019-02-07T09:40:50.539Z,25.07
2019-02-07T09:46:12.842Z,26.27
2019-02-07T09:51:33.267Z,21.57
2019-02-07T09:56:55.175Z,19.97
2019-02-07T10:02:12.256Z,21.87
2019-02-07T10:07:34.593Z,21.30
2019-02-07T10:12:56.893Z,21.13
2019-02-07T10:18:19.204Z,22.10
2019-02-07T10:23:53.245Z,22.37
2019-02-07T10:29:24.090Z,21.20
2019-02-07T10:34:44.813Z,18.17
2019-02-07T10:40:07.136Z,17.80
2019-02-07T10:45:33.780Z,22.23
2019-02-07T10:50:58.894Z,20.23
2019-02-07T10:56:16.060Z,20.30
2019-02-07T11:01:43.642Z,18.50
2019-02-07T11:06:56.259Z,19.83
2019-02-07T11:12:33.251Z,16.03
2019-02-07T11:18:04.518Z,17.13
2019-02-07T11:23:44.872Z,27.80
2019-02-07T11:29:05.386Z,30.07
2019-02-07T11:34:21.472Z,14.30
2019-02-07T11:39:46.662Z,16.73
2019-02-07T11:45:07.376Z,13.60
2019-02-07T11:50:29.781Z,13.07
2019-02-07T11:55:59.076Z,13.53
2019-02-07T12:01:26.463Z,9.43
2019-02-07T12:06:51.917Z,9.60
2019-02-07T12:12:17.111Z,9.80
2019-02-07T12:17:45.534Z,13.00
2019-02-07T12:23:05.954Z,6.80
2019-02-07T12:28:28.373Z,11.53
2019-02-07T12:33:50.678Z,11.93
2019-02-07T12:39:15.571Z,7.73
2019-02-07T12:44:52.809Z,10.80
2019-02-07T12:50:13.236Z,8.27
2019-02-07T12:55:26.808Z,7.20
2019-02-07T13:00:51.215Z,7.43
2019-02-07T13:06:05.731Z,9.37
2019-02-07T13:11:33.458Z,6.73
2019-02-07T13:16:45.944Z,10.10
2019-02-07T13:22:10.274Z,7.47
2019-02-07T13:27:24.820Z,10.13
2019-02-07T13:32:46.333Z,11.30
2019-02-07T13:38:26.384Z,6.67
2019-02-07T13:43:47.290Z,14.20
2019-02-07T13:49:15.459Z,4.80
2019-02-07T13:54:33.932Z,3.47
2019-02-07T13:59:48.029Z,15.87
2019-02-07T14:05:12.906Z,10.10
2019-02-07T14:10:44.357Z,4.70
2019-02-07T14:16:24.606Z,13.87
2019-02-07T14:21:45.480Z,12.03
2019-02-07T14:27:07.787Z,8.03
2019-02-07T14:32:30.318Z,6.30
2019-02-07T14:37:55.375Z,8.53
2019-02-07T14:43:10.881Z,5.80
2019-02-07T14:48:23.628Z,9.33
2019-02-07T14:53:26.398Z,15.97
2019-02-07T14:58:29.347Z,13.70
2019-02-07T15:03:32.034Z,9.80
2019-02-07T15:08:34.764Z,13.53
2019-02-07T15:13:37.561Z,6.03
2019-02-07T15:18:40.635Z,15.10
2019-02-07T15:23:43.352Z,11.43
2019-02-07T15:28:46.027Z,10.70
2019-02-07T15:33:48.764Z,11.50
2019-02-07T15:38:51.431Z,5.67
2019-02-07T15:43:54.098Z,8.70
2019-02-07T15:48:57.087Z,11.83
2019-02-07T15:53:59.836Z,11.17
2019-02-07T15:59:14.685Z,8.40
2019-02-07T16:04:20.699Z,10.20
2019-02-07T16:09:23.678Z,12.83
2019-02-07T16:14:26.460Z,15.60
2019-02-07T16:19:30.038Z,23.63
2019-02-07T16:24:32.737Z,7.60
2019-02-07T16:29:35.392Z,17.07
2019-02-07T16:34:38.099Z,11.70
2019-02-07T16:39:40.934Z,21.37
2019-02-07T16:44:43.612Z,16.30
2019-02-07T16:49:46.597Z,15.50
2019-02-07T16:54:50.821Z,7.60
2019-02-07T16:59:53.888Z,6.47
2019-02-07T17:04:56.851Z,7.70
2019-02-07T17:09:59.914Z,9.90
2019-02-07T17:15:04.712Z,8.10
2019-02-07T17:20:15.037Z,5.63
2019-02-07T17:25:18.241Z,12.00
2019-02-07T17:30:21.241Z,3.70
2019-02-07T17:35:24.319Z,12.10
2019-02-07T17:40:27.001Z,11.57
2019-02-07T17:45:29.795Z,12.90
2019-02-07T17:50:32.729Z,9.40
2019-02-07T17:55:35.403Z,10.33
2019-02-07T18:01:01.932Z,13.57
2019-02-07T18:06:06.812Z,4.43
2019-02-07T18:11:09.538Z,7.67
2019-02-07T18:16:12.300Z,7.07
2019-02-07T18:21:14.973Z,2.40
2019-02-07T18:26:17.640Z,5.70
2019-02-07T18:31:20.312Z,2.60
2019-02-07T18:36:23.372Z,5.23
2019-02-07T18:41:26.071Z,4.63
2019-02-07T18:46:28.751Z,7.37
2019-02-07T18:51:31.564Z,8.10
2019-02-07T18:56:34.336Z,2.87
2019-02-07T19:01:37.007Z,5.80
2019-02-07T19:06:39.699Z,5.57
2019-02-07T19:11:42.507Z,7.57
2019-02-07T19:16:45.367Z,8.33
2019-02-07T19:21:56.726Z,7.50
2019-02-07T19:26:52.613Z,4.93
2019-02-07T19:31:55.281Z,4.50
2019-02-07T19:36:57.946Z,5.97
2019-02-07T19:42:00.923Z,7.47
2019-02-07T19:47:03.609Z,8.23
2019-02-07T19:52:08.523Z,5.90
2019-02-07T19:57:11.339Z,5.50
2019-02-07T20:02:14.355Z,5.73
2019-02-07T20:07:17.133Z,19.50
2019-02-07T20:12:19.913Z,3.40
2019-02-07T20:17:22.584Z,7.83
2019-02-07T20:22:25.656Z,4.10
2019-02-07T20:27:28.329Z,13.00
2019-02-07T20:32:31.013Z,9.30
2019-02-07T20:37:33.884Z,5.70
2019-02-07T20:42:36.568Z,4.40
2019-02-07T20:47:39.298Z,5.87
2019-02-07T20:52:42.278Z,4.47
2019-02-07T20:57:45.100Z,8.00
2019-02-07T21:02:47.910Z,8.13
2019-02-07T21:07:50.600Z,5.43
2019-02-07T21:12:53.277Z,3.67
2019-02-07T21:17:56.257Z,3.03
2019-02-07T21:22:59.615Z,6.50
2019-02-07T21:28:02.390Z,4.50
2019-02-07T21:33:05.852Z,4.43
2019-02-07T21:38:08.910Z,2.10
2019-02-07T21:43:11.565Z,6.50
2019-02-07T21:48:14.263Z,4.47
2019-02-07T21:53:16.937Z,1.73
2019-02-07T21:58:19.600Z,5.03
2019-02-07T22:03:22.360Z,1.40
2019-02-07T22:08:25.064Z,1.80
2019-02-07T22:13:28.039Z,6.63
2019-02-07T22:18:30.717Z,2.50
2019-02-07T22:23:33.377Z,6.80
2019-02-07T22:28:36.066Z,1.53
2019-02-07T22:33:38.727Z,6.47
2019-02-07T22:38:41.407Z,7.73
2019-02-07T22:43:44.110Z,5.00
2019-02-07T22:48:46.783Z,5.00
2019-02-07T22:53:49.459Z,5.00
2019-02-07T22:58:52.144Z,4.37
2019-02-07T23:04:04.371Z,6.10
2019-02-07T23:09:10.533Z,5.23
2019-02-07T23:14:13.537Z,4.43
2019-02-07T23:19:16.199Z,4.40
2019-02-07T23:24:18.901Z,5.03
2019-02-07T23:29:21.965Z,11.43
2019-02-07T23:34:24.627Z,10.30
2019-02-07T23:39:27.299Z,12.60
2019-02-07T23:44:30.163Z,9.93
2019-02-07T23:49:32.826Z,13.50
2019-02-07T23:54:35.517Z,9.27
2019-02-07T23:59:38.198Z,7.50
